createdAt,value
2022-12-31T00:03:46.338Z,97422.00
2022-12-31T00:07:49.083Z,97415.63
2022-12-31T00:11:50.464Z,97413.34
2022-12-31T00:15:51.867Z,97409.25
2022-12-31T00:19:53.231Z,97406.94
2022-12-31T00:23:56.013Z,97416.88
2022-12-31T00:27:57.407Z,97414.47
2022-12-31T00:31:58.769Z,97420.75
2022-12-31T00:36:07.450Z,97419.81
2022-12-31T00:40:11.189Z,97424.97
2022-12-31T00:44:12.589Z,97434.34
2022-12-31T00:48:13.969Z,97433.56
2022-12-31T00:52:15.344Z,97439.84
2022-12-31T00:56:19.059Z,97440.34
2022-12-31T01:00:20.505Z,97448.06
2022-12-31T01:04:21.893Z,97445.31
2022-12-31T01:08:23.275Z,97437.53
2022-12-31T01:12:26.018Z,97437.41
2022-12-31T01:16:28.090Z,97451.41
2022-12-31T01:20:29.596Z,97454.66
2022-12-31T01:24:30.940Z,97455.09
2022-12-31T01:28:33.828Z,97467.38
2022-12-31T01:32:35.177Z,97473.63
2022-12-31T01:36:36.993Z,97475.59
2022-12-31T01:40:39.246Z,97490.38
2022-12-31T01:44:53.101Z,97486.03
2022-12-31T01:48:56.451Z,97477.16
2022-12-31T01:52:59.095Z,97481.53
2022-12-31T01:57:00.469Z,97481.66
2022-12-31T02:01:04.529Z,97479.00
2022-12-31T02:05:10.684Z,97475.97
2022-12-31T02:09:12.128Z,97481.16
2022-12-31T02:13:14.098Z,97485.66
2022-12-31T02:17:21.652Z,97484.72
2022-12-31T02:21:34.142Z,97489.88
2022-12-31T02:25:52.902Z,97492.94
2022-12-31T02:30:01.896Z,97507.03
2022-12-31T02:34:06.332Z,97507.22
2022-12-31T02:38:08.720Z,97502.16
2022-12-31T02:42:10.383Z,97492.84
2022-12-31T02:46:17.462Z,97502.47
2022-12-31T02:50:25.842Z,97506.84
2022-12-31T02:54:31.944Z,97506.84
2022-12-31T02:58:37.860Z,97518.63
2022-12-31T03:02:41.770Z,97514.47
2022-12-31T03:06:43.663Z,97516.25
2022-12-31T03:10:45.037Z,97520.03
2022-12-31T03:14:46.546Z,97525.91
2022-12-31T03:18:49.267Z,97522.94
2022-12-31T03:22:50.599Z,97519.25
2022-12-31T03:26:51.963Z,97519.53
2022-12-31T03:30:55.076Z,97538.75
2022-12-31T03:34:57.783Z,97540.88
2022-12-31T03:38:59.194Z,97548.31
2022-12-31T03:43:00.882Z,97554.06
2022-12-31T03:47:02.250Z,97552.31
2022-12-31T03:51:05.028Z,97554.59
2022-12-31T03:55:07.047Z,97555.31
2022-12-31T03:59:08.409Z,97538.13
2022-12-31T04:03:09.777Z,97553.41
2022-12-31T04:07:12.516Z,97553.28
2022-12-31T04:11:20.475Z,97541.31
2022-12-31T04:15:22.135Z,97550.72
2022-12-31T04:19:23.561Z,97548.56
2022-12-31T04:23:26.262Z,97545.47
2022-12-31T04:27:27.630Z,97548.91
2022-12-31T04:31:29.092Z,97572.09
2022-12-31T04:35:30.493Z,97563.53
2022-12-31T04:39:33.279Z,97568.78
2022-12-31T04:43:34.681Z,97566.97
2022-12-31T04:47:36.136Z,97575.47
2022-12-31T04:51:37.623Z,97585.06
2022-12-31T04:55:41.878Z,97593.97
2022-12-31T04:59:43.236Z,97589.13
2022-12-31T05:03:44.658Z,97589.44
2022-12-31T05:07:46.052Z,97579.16
2022-12-31T05:11:48.807Z,97595.75
2022-12-31T05:15:50.507Z,97601.59
2022-12-31T05:19:51.894Z,97599.94
2022-12-31T05:23:53.297Z,97580.31
2022-12-31T05:27:56.308Z,97582.25
2022-12-31T05:31:57.732Z,97580.03
2022-12-31T05:35:59.230Z,97592.09
2022-12-31T05:40:00.604Z,97598.56
2022-12-31T05:44:03.495Z,97596.34
2022-12-31T05:48:05.207Z,97596.25
2022-12-31T05:52:07.067Z,97600.09
2022-12-31T05:56:08.485Z,97590.97
2022-12-31T06:00:12.020Z,97606.31
2022-12-31T06:04:13.416Z,97599.34
2022-12-31T06:08:14.819Z,97608.59
2022-12-31T06:12:16.226Z,97621.06
2022-12-31T06:16:19.061Z,97613.53
2022-12-31T06:20:20.482Z,97621.59
2022-12-31T06:24:21.935Z,97608.28
2022-12-31T06:28:23.355Z,97607.25
2022-12-31T06:32:26.130Z,97618.97
2022-12-31T06:36:27.705Z,97619.59
2022-12-31T06:40:29.064Z,97618.44
2022-12-31T06:44:30.453Z,97618.44
2022-12-31T06:48:33.229Z,97614.44
2022-12-31T06:52:34.604Z,97625.53
2022-12-31T06:56:36.200Z,97626.34
2022-12-31T07:00:37.616Z,97620.81
2022-12-31T07:04:50.577Z,97634.19
2022-12-31T07:08:56.456Z,97642.06
2022-12-31T07:13:19.940Z,97635.53
2022-12-31T07:17:28.272Z,97655.34
2022-12-31T07:21:33.473Z,97636.72
2022-12-31T07:25:35.690Z,97645.03
2022-12-31T07:29:53.662Z,97652.69
2022-12-31T07:33:58.483Z,97658.22
2022-12-31T07:38:05.761Z,97670.13
2022-12-31T07:42:11.662Z,97667.97
2022-12-31T07:46:17.249Z,97675.44
2022-12-31T07:50:19.239Z,97676.00
2022-12-31T07:54:22.030Z,97681.00
2022-12-31T07:58:26.114Z,97691.91
2022-12-31T08:02:36.880Z,97686.97
2022-12-31T08:06:43.379Z,97692.78
2022-12-31T08:10:51.478Z,97682.38
2022-12-31T08:14:53.041Z,97696.28
2022-12-31T08:18:54.613Z,97696.69
2022-12-31T08:23:11.362Z,97692.72
2022-12-31T08:27:20.902Z,97707.06
2022-12-31T08:31:25.742Z,97693.97
2022-12-31T08:35:33.281Z,97691.09
2022-12-31T08:39:58.593Z,97700.94
2022-12-31T08:44:08.279Z,97714.41
2022-12-31T08:48:16.506Z,97727.13
2022-12-31T08:52:21.764Z,97713.06
2022-12-31T08:56:26.821Z,97719.41
2022-12-31T09:00:30.476Z,97722.69
2022-12-31T09:04:40.535Z,97708.38
2022-12-31T09:08:47.437Z,97718.75
2022-12-31T09:12:54.990Z,97716.91
2022-12-31T09:17:00.530Z,97718.72
2022-12-31T09:21:02.072Z,97720.31
2022-12-31T09:25:03.673Z,97726.81
2022-12-31T09:29:10.102Z,97740.47
2022-12-31T09:33:16.572Z,97736.94
2022-12-31T09:37:20.852Z,97727.38
2022-12-31T09:41:40.164Z,97729.31
2022-12-31T09:45:55.492Z,97723.66
2022-12-31T09:50:11.751Z,97726.25
2022-12-31T09:54:23.662Z,97730.19
2022-12-31T09:58:32.432Z,97740.00
2022-12-31T10:02:47.706Z,97743.50
2022-12-31T10:06:54.074Z,97750.56
2022-12-31T10:10:58.761Z,97752.09
2022-12-31T10:15:21.237Z,97758.66
2022-12-31T10:19:30.256Z,97750.66
2022-12-31T10:23:50.205Z,97749.59
2022-12-31T10:27:59.005Z,97748.66
2022-12-31T10:32:10.996Z,97751.59
2022-12-31T10:36:18.273Z,97750.31
2022-12-31T10:40:24.652Z,97759.69
2022-12-31T10:44:43.739Z,97754.41
2022-12-31T10:48:57.416Z,97766.22
2022-12-31T10:53:09.272Z,97757.19
2022-12-31T10:57:34.713Z,97760.66
2022-12-31T11:01:42.065Z,97754.88
2022-12-31T11:06:07.352Z,97754.28
2022-12-31T11:10:20.467Z,97741.19
2022-12-31T11:14:34.912Z,97728.72
2022-12-31T11:18:41.805Z,97724.97
2022-12-31T11:22:54.098Z,97730.88
2022-12-31T11:27:10.636Z,97734.63
2022-12-31T11:31:16.397Z,97726.28
2022-12-31T11:35:23.251Z,97726.13
2022-12-31T11:39:34.723Z,97730.88
2022-12-31T11:43:39.355Z,97729.22
2022-12-31T11:48:28.037Z,97717.13
2022-12-31T11:52:30.064Z,97720.56
2022-12-31T11:56:34.545Z,97722.19
2022-12-31T12:00:38.245Z,97710.69
2022-12-31T12:04:39.597Z,97708.94
2022-12-31T12:08:42.374Z,97692.09
2022-12-31T12:12:43.723Z,97697.47
2022-12-31T12:16:46.587Z,97706.47
2022-12-31T12:20:48.041Z,97705.81
2022-12-31T12:24:52.648Z,97707.31
2022-12-31T12:28:54.042Z,97698.78
2022-12-31T12:32:58.368Z,97692.06
2022-12-31T12:37:00.087Z,97697.31
2022-12-31T12:41:03.768Z,97702.41
2022-12-31T12:45:08.101Z,97697.94
2022-12-31T12:49:18.422Z,97695.16
2022-12-31T12:53:36.537Z,97693.88
2022-12-31T12:57:43.489Z,97688.63
2022-12-31T13:01:47.992Z,97697.78
2022-12-31T13:05:58.284Z,97705.75
2022-12-31T13:10:15.657Z,97700.69
2022-12-31T13:14:21.712Z,97700.84
2022-12-31T13:18:28.744Z,97693.97
2022-12-31T13:22:34.393Z,97697.72
2022-12-31T13:26:39.159Z,97695.78
2022-12-31T13:30:42.560Z,97695.25
2022-12-31T13:34:44.741Z,97689.19
2022-12-31T13:38:49.121Z,97690.84
2022-12-31T13:42:54.535Z,97687.56
2022-12-31T13:46:59.035Z,97692.28
2022-12-31T13:51:03.103Z,97691.28
2022-12-31T13:55:10.257Z,97690.44
2022-12-31T13:59:15.374Z,97687.63
2022-12-31T14:03:20.806Z,97690.91
2022-12-31T14:07:29.110Z,97692.38
2022-12-31T14:11:43.461Z,97685.00
2022-12-31T14:15:49.626Z,97697.69
2022-12-31T14:19:56.024Z,97693.47
2022-12-31T14:24:03.999Z,97684.22
2022-12-31T14:28:09.979Z,97691.06
2022-12-31T14:32:28.389Z,97685.31
2022-12-31T14:36:34.377Z,97687.34
2022-12-31T14:40:41.737Z,97684.53
2022-12-31T14:44:52.308Z,97690.88
2022-12-31T14:48:58.989Z,97699.72
2022-12-31T14:53:07.030Z,97701.47
2022-12-31T14:57:17.836Z,97706.09
2022-12-31T15:01:20.811Z,97709.97
2022-12-31T15:05:23.524Z,97703.81
2022-12-31T15:09:39.742Z,97705.56
2022-12-31T15:13:48.809Z,97713.06
2022-12-31T15:17:57.294Z,97717.06
2022-12-31T15:22:04.807Z,97721.47
2022-12-31T15:26:06.733Z,97722.63
2022-12-31T15:30:28.350Z,97714.09
2022-12-31T15:34:31.973Z,97708.88
2022-12-31T15:38:34.819Z,97711.84
2022-12-31T15:42:47.167Z,97721.06
2022-12-31T15:46:54.006Z,97721.78
2022-12-31T15:50:57.892Z,97718.19
2022-12-31T15:55:00.234Z,97723.19
2022-12-31T15:59:03.546Z,97724.44
2022-12-31T16:03:18.080Z,97729.38
2022-12-31T16:07:21.149Z,97724.16
2022-12-31T16:11:22.903Z,97726.25
2022-12-31T16:15:25.367Z,97728.94
2022-12-31T16:19:31.387Z,97732.38
2022-12-31T16:23:40.417Z,97727.00
2022-12-31T16:27:43.853Z,97742.06
2022-12-31T16:31:46.391Z,97737.41
2022-12-31T16:35:54.074Z,97746.16
2022-12-31T16:40:16.618Z,97743.53
2022-12-31T16:44:24.693Z,97752.78
2022-12-31T16:48:26.114Z,97745.09
2022-12-31T16:52:30.624Z,97754.25
2022-12-31T16:56:34.756Z,97754.41
2022-12-31T17:00:36.532Z,97748.59
2022-12-31T17:04:45.098Z,97742.66
2022-12-31T17:08:50.146Z,97749.94
2022-12-31T17:17:21.844Z,97733.94
2022-12-31T17:21:25.178Z,97732.38
2022-12-31T17:25:27.538Z,97738.97
2022-12-31T17:29:30.284Z,97743.78
2022-12-31T17:33:31.872Z,97743.66
2022-12-31T17:37:33.224Z,97732.91
2022-12-31T17:41:34.623Z,97735.09
2022-12-31T17:45:37.947Z,97737.66
2022-12-31T17:49:40.764Z,97738.72
2022-12-31T17:53:42.218Z,97743.81
2022-12-31T17:57:47.400Z,97741.88
2022-12-31T18:01:50.203Z,97743.00
2022-12-31T18:05:51.685Z,97751.31
2022-12-31T18:09:53.110Z,97749.25
2022-12-31T18:13:54.519Z,97749.25
2022-12-31T18:17:57.220Z,97753.38
2022-12-31T18:21:58.683Z,97752.84
2022-12-31T18:26:00.076Z,97757.56
2022-12-31T18:30:04.739Z,97752.03
2022-12-31T18:34:11.728Z,97755.63
2022-12-31T18:38:14.202Z,97767.00
2022-12-31T18:42:17.256Z,97769.88
2022-12-31T18:46:22.944Z,97774.16
2022-12-31T18:50:25.675Z,97765.72
2022-12-31T18:54:27.051Z,97772.81
2022-12-31T18:58:28.377Z,97766.53
2022-12-31T19:02:29.772Z,97782.25
2022-12-31T19:06:32.485Z,97784.50
2022-12-31T19:10:33.924Z,97789.13
2022-12-31T19:14:35.366Z,97790.28
2022-12-31T19:18:36.860Z,97799.41
2022-12-31T19:22:39.595Z,97801.22
2022-12-31T19:26:43.444Z,97801.06
2022-12-31T19:30:45.429Z,97802.31
2022-12-31T19:34:46.768Z,97805.69
2022-12-31T19:38:49.520Z,97810.41
2022-12-31T19:42:51.632Z,97811.31
2022-12-31T19:46:53.037Z,97804.50
2022-12-31T19:50:54.424Z,97815.06
2022-12-31T19:54:57.164Z,97819.47
2022-12-31T19:59:02.531Z,97826.06
2022-12-31T20:03:04.122Z,97828.69
2022-12-31T20:07:05.655Z,97831.09
2022-12-31T20:11:09.162Z,97826.41
2022-12-31T20:15:10.678Z,97857.69
2022-12-31T20:19:12.103Z,97859.22
2022-12-31T20:23:13.511Z,97858.72
2022-12-31T20:27:18.579Z,97854.50
2022-12-31T20:31:21.306Z,97862.22
2022-12-31T20:35:22.751Z,97871.94
2022-12-31T20:39:24.141Z,97860.69
2022-12-31T20:43:29.533Z,97870.97
2022-12-31T20:47:30.910Z,97867.41
2022-12-31T20:51:33.646Z,97877.88
2022-12-31T20:55:36.939Z,97869.63
2022-12-31T20:59:39.823Z,97862.78
2022-12-31T21:08:04.177Z,97886.69
2022-12-31T21:12:05.672Z,97880.69
2022-12-31T21:16:08.593Z,97877.94
2022-12-31T21:20:10.688Z,97872.41
2022-12-31T21:24:12.066Z,97873.53
2022-12-31T21:28:13.477Z,97869.09
2022-12-31T21:32:16.289Z,97855.59
2022-12-31T21:36:17.672Z,97860.22
2022-12-31T21:40:19.035Z,97863.53
2022-12-31T21:44:21.071Z,97867.91
2022-12-31T21:48:23.828Z,97872.81
2022-12-31T21:52:25.231Z,97866.44
2022-12-31T21:56:26.610Z,97868.94
2022-12-31T22:00:43.837Z,97862.56
2022-12-31T22:05:03.166Z,97861.72
2022-12-31T22:09:06.218Z,97860.34
2022-12-31T22:13:07.630Z,97844.38
2022-12-31T22:17:09.038Z,97844.63
2022-12-31T22:21:18.126Z,97839.81
2022-12-31T22:25:20.038Z,97829.66
2022-12-31T22:29:21.407Z,97836.31
2022-12-31T22:33:22.845Z,97837.13
2022-12-31T22:37:55.697Z,97838.63
2022-12-31T22:41:46.999Z,97834.25
2022-12-31T22:45:48.371Z,97829.59
2022-12-31T22:49:49.775Z,97832.97
2022-12-31T22:53:52.498Z,97840.13
2022-12-31T22:57:53.826Z,97835.19
2022-12-31T23:01:55.230Z,97839.88
2022-12-31T23:05:56.602Z,97848.69
2022-12-31T23:09:59.333Z,97852.84
2022-12-31T23:14:00.765Z,97857.53
2022-12-31T23:18:02.166Z,97866.34
2022-12-31T23:22:03.539Z,97862.72
2022-12-31T23:26:06.305Z,97868.59
2022-12-31T23:30:08.209Z,97863.63
2022-12-31T23:34:09.661Z,97874.66
2022-12-31T23:38:11.402Z,97866.13
2022-12-31T23:42:14.143Z,97862.56
2022-12-31T23:46:16.369Z,97870.81
2022-12-31T23:50:17.790Z,97874.66
2022-12-31T23:54:19.169Z,97872.75
2022-12-31T23:58:21.930Z,97878.50
